sensor_id;sensor_type;location;lat;lon;timestamp;P1;durP1;ratioP1;P2;durP2;ratioP2
71368;SDS011;59175;53.214;5.728;2023-05-07T00:01:56;17.02;;;6.47;;
71368;SDS011;59175;53.214;5.728;2023-05-07T00:04:22;14.13;;;6.18;;
71368;SDS011;59175;53.214;5.728;2023-05-07T00:06:47;11.80;;;5.57;;
71368;SDS011;59175;53.214;5.728;2023-05-07T00:09:13;13.67;;;6.13;;
71368;SDS011;59175;53.214;5.728;2023-05-07T00:11:38;14.23;;;5.13;;
71368;SDS011;59175;53.214;5.728;2023-05-07T00:14:03;10.87;;;4.40;;
71368;SDS011;59175;53.214;5.728;2023-05-07T00:16:28;13.00;;;6.20;;
71368;SDS011;59175;53.214;5.728;2023-05-07T00:18:54;13.40;;;4.57;;
71368;SDS011;59175;53.214;5.728;2023-05-07T00:21:19;11.33;;;5.33;;
71368;SDS011;59175;53.214;5.728;2023-05-07T00:23:44;11.80;;;5.27;;
71368;SDS011;59175;53.214;5.728;2023-05-07T00:26:09;16.43;;;5.37;;
71368;SDS011;59175;53.214;5.728;2023-05-07T00:28:35;14.90;;;6.17;;
71368;SDS011;59175;53.214;5.728;2023-05-07T00:31:00;12.00;;;5.43;;
71368;SDS011;59175;53.214;5.728;2023-05-07T00:33:25;17.90;;;6.33;;
71368;SDS011;59175;53.214;5.728;2023-05-07T00:35:51;11.17;;;5.50;;
71368;SDS011;59175;53.214;5.728;2023-05-07T00:38:17;18.40;;;6.30;;
71368;SDS011;59175;53.214;5.728;2023-05-07T00:40:42;11.40;;;5.33;;
71368;SDS011;59175;53.214;5.728;2023-05-07T00:43:07;11.80;;;5.90;;
71368;SDS011;59175;53.214;5.728;2023-05-07T00:45:33;12.75;;;5.15;;
71368;SDS011;59175;53.214;5.728;2023-05-07T00:48:00;16.53;;;5.30;;
71368;SDS011;59175;53.214;5.728;2023-05-07T00:50:28;11.50;;;5.40;;
71368;SDS011;59175;53.214;5.728;2023-05-07T00:52:54;11.25;;;6.30;;
71368;SDS011;59175;53.214;5.728;2023-05-07T00:55:20;12.77;;;5.37;;
71368;SDS011;59175;53.214;5.728;2023-05-07T00:57:45;13.60;;;5.80;;
71368;SDS011;59175;53.214;5.728;2023-05-07T01:00:11;14.63;;;6.03;;
71368;SDS011;59175;53.214;5.728;2023-05-07T01:02:40;11.70;;;5.10;;
71368;SDS011;59175;53.214;5.728;2023-05-07T01:05:06;14.68;;;5.35;;
71368;SDS011;59175;53.214;5.728;2023-05-07T01:07:32;13.02;;;5.70;;
71368;SDS011;59175;53.214;5.728;2023-05-07T01:09:58;13.00;;;5.27;;
71368;SDS011;59175;53.214;5.728;2023-05-07T01:12:23;12.00;;;5.57;;
71368;SDS011;59175;53.214;5.728;2023-05-07T01:14:49;14.27;;;5.72;;
71368;SDS011;59175;53.214;5.728;2023-05-07T01:17:15;13.05;;;5.05;;
71368;SDS011;59175;53.214;5.728;2023-05-07T01:19:41;16.23;;;5.60;;
71368;SDS011;59175;53.214;5.728;2023-05-07T01:22:09;16.60;;;6.47;;
71368;SDS011;59175;53.214;5.728;2023-05-07T01:24:36;11.88;;;4.35;;
71368;SDS011;59175;53.214;5.728;2023-05-07T01:27:01;13.17;;;6.43;;
71368;SDS011;59175;53.214;5.728;2023-05-07T01:29:27;13.07;;;5.57;;
71368;SDS011;59175;53.214;5.728;2023-05-07T01:31:52;12.85;;;5.78;;
71368;SDS011;59175;53.214;5.728;2023-05-07T01:34:17;13.57;;;4.97;;
71368;SDS011;59175;53.214;5.728;2023-05-07T01:36:44;10.95;;;4.75;;
71368;SDS011;59175;53.214;5.728;2023-05-07T01:39:10;14.57;;;5.47;;
71368;SDS011;59175;53.214;5.728;2023-05-07T01:41:36;12.40;;;4.72;;
71368;SDS011;59175;53.214;5.728;2023-05-07T01:44:01;14.40;;;6.23;;
71368;SDS011;59175;53.214;5.728;2023-05-07T01:46:27;10.73;;;4.85;;
71368;SDS011;59175;53.214;5.728;2023-05-07T01:48:53;16.20;;;5.77;;
71368;SDS011;59175;53.214;5.728;2023-05-07T01:51:18;14.00;;;5.23;;
71368;SDS011;59175;53.214;5.728;2023-05-07T01:53:45;12.38;;;5.60;;
71368;SDS011;59175;53.214;5.728;2023-05-07T01:56:12;11.68;;;5.03;;
71368;SDS011;59175;53.214;5.728;2023-05-07T01:58:38;14.70;;;5.83;;
71368;SDS011;59175;53.214;5.728;2023-05-07T02:01:03;14.40;;;5.30;;
71368;SDS011;59175;53.214;5.728;2023-05-07T02:03:28;15.50;;;7.10;;
71368;SDS011;59175;53.214;5.728;2023-05-07T02:05:53;15.67;;;5.87;;
71368;SDS011;59175;53.214;5.728;2023-05-07T02:08:18;12.53;;;5.10;;
71368;SDS011;59175;53.214;5.728;2023-05-07T02:10:44;13.03;;;5.13;;
71368;SDS011;59175;53.214;5.728;2023-05-07T02:13:09;18.27;;;5.33;;
71368;SDS011;59175;53.214;5.728;2023-05-07T02:15:34;15.53;;;8.13;;
71368;SDS011;59175;53.214;5.728;2023-05-07T02:18:03;14.00;;;6.17;;
71368;SDS011;59175;53.214;5.728;2023-05-07T02:20:29;15.32;;;6.07;;
71368;SDS011;59175;53.214;5.728;2023-05-07T02:22:54;13.50;;;5.20;;
71368;SDS011;59175;53.214;5.728;2023-05-07T02:25:19;14.90;;;6.43;;
71368;SDS011;59175;53.214;5.728;2023-05-07T02:27:45;14.97;;;6.40;;
71368;SDS011;59175;53.214;5.728;2023-05-07T02:30:10;12.17;;;7.07;;
71368;SDS011;59175;53.214;5.728;2023-05-07T02:32:35;16.53;;;8.73;;
71368;SDS011;59175;53.214;5.728;2023-05-07T02:35:00;15.73;;;7.30;;
71368;SDS011;59175;53.214;5.728;2023-05-07T02:37:26;17.00;;;6.47;;
71368;SDS011;59175;53.214;5.728;2023-05-07T02:39:51;15.03;;;7.43;;
71368;SDS011;59175;53.214;5.728;2023-05-07T02:42:16;17.80;;;7.10;;
71368;SDS011;59175;53.214;5.728;2023-05-07T02:44:41;11.90;;;5.80;;
71368;SDS011;59175;53.214;5.728;2023-05-07T02:47:06;15.47;;;6.47;;
71368;SDS011;59175;53.214;5.728;2023-05-07T02:49:33;21.33;;;7.28;;
71368;SDS011;59175;53.214;5.728;2023-05-07T02:51:58;13.17;;;6.20;;
71368;SDS011;59175;53.214;5.728;2023-05-07T02:54:24;17.17;;;6.93;;
71368;SDS011;59175;53.214;5.728;2023-05-07T02:56:49;16.43;;;8.50;;
71368;SDS011;59175;53.214;5.728;2023-05-07T02:59:15;16.05;;;7.88;;
71368;SDS011;59175;53.214;5.728;2023-05-07T03:01:40;15.40;;;7.73;;
71368;SDS011;59175;53.214;5.728;2023-05-07T03:04:06;14.17;;;6.87;;
71368;SDS011;59175;53.214;5.728;2023-05-07T03:06:31;14.60;;;6.47;;
71368;SDS011;59175;53.214;5.728;2023-05-07T03:08:57;17.80;;;7.30;;
71368;SDS011;59175;53.214;5.728;2023-05-07T03:11:22;15.43;;;7.80;;
71368;SDS011;59175;53.214;5.728;2023-05-07T03:13:47;17.17;;;7.77;;
71368;SDS011;59175;53.214;5.728;2023-05-07T03:16:14;17.92;;;7.32;;
71368;SDS011;59175;53.214;5.728;2023-05-07T03:18:39;16.50;;;7.27;;
71368;SDS011;59175;53.214;5.728;2023-05-07T03:21:04;13.17;;;6.17;;
71368;SDS011;59175;53.214;5.728;2023-05-07T03:23:29;15.47;;;7.10;;
71368;SDS011;59175;53.214;5.728;2023-05-07T03:25:55;18.90;;;8.20;;
71368;SDS011;59175;53.214;5.728;2023-05-07T03:28:20;16.53;;;6.90;;
71368;SDS011;59175;53.214;5.728;2023-05-07T03:30:45;18.42;;;7.28;;
71368;SDS011;59175;53.214;5.728;2023-05-07T03:33:10;18.13;;;6.57;;
71368;SDS011;59175;53.214;5.728;2023-05-07T03:35:35;16.23;;;7.97;;
71368;SDS011;59175;53.214;5.728;2023-05-07T03:38:01;12.85;;;5.90;;
71368;SDS011;59175;53.214;5.728;2023-05-07T03:40:26;15.27;;;7.63;;
71368;SDS011;59175;53.214;5.728;2023-05-07T03:42:52;15.40;;;6.77;;
71368;SDS011;59175;53.214;5.728;2023-05-07T03:45:17;18.10;;;6.60;;
71368;SDS011;59175;53.214;5.728;2023-05-07T03:47:42;19.23;;;8.40;;
71368;SDS011;59175;53.214;5.728;2023-05-07T03:50:07;16.13;;;7.07;;
71368;SDS011;59175;53.214;5.728;2023-05-07T03:52:33;15.50;;;8.00;;
71368;SDS011;59175;53.214;5.728;2023-05-07T03:54:58;17.70;;;8.13;;
71368;SDS011;59175;53.214;5.728;2023-05-07T03:57:23;16.17;;;7.80;;
71368;SDS011;59175;53.214;5.728;2023-05-07T03:59:48;15.20;;;7.43;;
71368;SDS011;59175;53.214;5.728;2023-05-07T04:02:13;14.20;;;6.77;;
71368;SDS011;59175;53.214;5.728;2023-05-07T04:04:39;17.33;;;8.23;;
71368;SDS011;59175;53.214;5.728;2023-05-07T04:07:04;17.77;;;7.67;;
71368;SDS011;59175;53.214;5.728;2023-05-07T04:09:29;15.40;;;7.30;;
71368;SDS011;59175;53.214;5.728;2023-05-07T04:11:55;19.57;;;8.50;;
71368;SDS011;59175;53.214;5.728;2023-05-07T04:14:20;21.80;;;8.27;;
71368;SDS011;59175;53.214;5.728;2023-05-07T04:16:45;17.07;;;7.50;;
71368;SDS011;59175;53.214;5.728;2023-05-07T04:19:10;16.27;;;6.80;;
71368;SDS011;59175;53.214;5.728;2023-05-07T04:21:35;15.50;;;6.63;;
71368;SDS011;59175;53.214;5.728;2023-05-07T04:24:02;15.40;;;6.43;;
71368;SDS011;59175;53.214;5.728;2023-05-07T04:26:28;18.42;;;7.97;;
71368;SDS011;59175;53.214;5.728;2023-05-07T04:28:54;17.98;;;8.50;;
71368;SDS011;59175;53.214;5.728;2023-05-07T04:31:19;17.07;;;8.00;;
71368;SDS011;59175;53.214;5.728;2023-05-07T04:33:45;18.97;;;8.50;;
71368;SDS011;59175;53.214;5.728;2023-05-07T04:36:10;23.25;;;8.50;;
71368;SDS011;59175;53.214;5.728;2023-05-07T04:38:36;18.15;;;8.38;;
71368;SDS011;59175;53.214;5.728;2023-05-07T04:41:04;17.53;;;8.20;;
71368;SDS011;59175;53.214;5.728;2023-05-07T04:43:30;24.27;;;7.90;;
71368;SDS011;59175;53.214;5.728;2023-05-07T04:45:55;23.57;;;8.00;;
71368;SDS011;59175;53.214;5.728;2023-05-07T04:48:20;18.33;;;8.77;;
71368;SDS011;59175;53.214;5.728;2023-05-07T04:50:49;19.17;;;7.60;;
71368;SDS011;59175;53.214;5.728;2023-05-07T04:53:15;16.70;;;8.98;;
71368;SDS011;59175;53.214;5.728;2023-05-07T04:55:40;19.27;;;8.70;;
71368;SDS011;59175;53.214;5.728;2023-05-07T04:58:05;16.00;;;7.37;;
71368;SDS011;59175;53.214;5.728;2023-05-07T05:00:30;20.03;;;7.47;;
71368;SDS011;59175;53.214;5.728;2023-05-07T05:02:56;15.97;;;7.30;;
71368;SDS011;59175;53.214;5.728;2023-05-07T05:05:21;18.50;;;7.87;;
71368;SDS011;59175;53.214;5.728;2023-05-07T05:07:46;17.13;;;7.80;;
71368;SDS011;59175;53.214;5.728;2023-05-07T05:10:11;16.37;;;7.43;;
71368;SDS011;59175;53.214;5.728;2023-05-07T05:12:37;17.23;;;6.43;;
71368;SDS011;59175;53.214;5.728;2023-05-07T05:15:03;18.00;;;9.17;;
71368;SDS011;59175;53.214;5.728;2023-05-07T05:17:28;15.65;;;8.85;;
71368;SDS011;59175;53.214;5.728;2023-05-07T05:19:53;25.13;;;10.30;;
71368;SDS011;59175;53.214;5.728;2023-05-07T05:22:18;19.33;;;9.93;;
71368;SDS011;59175;53.214;5.728;2023-05-07T05:24:43;23.00;;;8.97;;
71368;SDS011;59175;53.214;5.728;2023-05-07T05:27:09;18.87;;;9.00;;
71368;SDS011;59175;53.214;5.728;2023-05-07T05:29:34;23.23;;;9.07;;
71368;SDS011;59175;53.214;5.728;2023-05-07T05:31:59;18.43;;;8.57;;
71368;SDS011;59175;53.214;5.728;2023-05-07T05:34:24;20.83;;;9.23;;
71368;SDS011;59175;53.214;5.728;2023-05-07T05:36:50;23.60;;;9.73;;
71368;SDS011;59175;53.214;5.728;2023-05-07T05:39:15;19.30;;;9.40;;
71368;SDS011;59175;53.214;5.728;2023-05-07T05:41:40;19.13;;;8.50;;
71368;SDS011;59175;53.214;5.728;2023-05-07T05:44:06;20.77;;;9.00;;
71368;SDS011;59175;53.214;5.728;2023-05-07T05:46:31;21.30;;;10.40;;
71368;SDS011;59175;53.214;5.728;2023-05-07T05:48:56;26.23;;;8.97;;
71368;SDS011;59175;53.214;5.728;2023-05-07T05:51:21;28.80;;;10.27;;
71368;SDS011;59175;53.214;5.728;2023-05-07T05:53:47;22.70;;;9.63;;
71368;SDS011;59175;53.214;5.728;2023-05-07T05:56:12;21.20;;;8.65;;
71368;SDS011;59175;53.214;5.728;2023-05-07T05:58:37;23.70;;;10.38;;
71368;SDS011;59175;53.214;5.728;2023-05-07T06:01:02;24.52;;;9.93;;
71368;SDS011;59175;53.214;5.728;2023-05-07T06:03:28;23.65;;;8.98;;
71368;SDS011;59175;53.214;5.728;2023-05-07T06:05:53;23.60;;;9.97;;
71368;SDS011;59175;53.214;5.728;2023-05-07T06:08:18;22.73;;;9.13;;
71368;SDS011;59175;53.214;5.728;2023-05-07T06:10:44;23.93;;;9.50;;
71368;SDS011;59175;53.214;5.728;2023-05-07T06:13:09;22.50;;;8.20;;
71368;SDS011;59175;53.214;5.728;2023-05-07T06:15:34;21.90;;;8.87;;
71368;SDS011;59175;53.214;5.728;2023-05-07T06:18:00;24.07;;;9.80;;
71368;SDS011;59175;53.214;5.728;2023-05-07T06:20:25;23.23;;;9.87;;
71368;SDS011;59175;53.214;5.728;2023-05-07T06:22:50;20.07;;;9.37;;
71368;SDS011;59175;53.214;5.728;2023-05-07T06:25:15;25.03;;;9.63;;
71368;SDS011;59175;53.214;5.728;2023-05-07T06:27:41;22.33;;;9.53;;
71368;SDS011;59175;53.214;5.728;2023-05-07T06:30:06;19.93;;;8.87;;
71368;SDS011;59175;53.214;5.728;2023-05-07T06:32:31;22.17;;;8.45;;
71368;SDS011;59175;53.214;5.728;2023-05-07T06:34:57;21.60;;;8.90;;
71368;SDS011;59175;53.214;5.728;2023-05-07T06:37:22;22.90;;;9.50;;
71368;SDS011;59175;53.214;5.728;2023-05-07T06:39:47;21.23;;;8.37;;
71368;SDS011;59175;53.214;5.728;2023-05-07T06:42:12;21.70;;;9.20;;
71368;SDS011;59175;53.214;5.728;2023-05-07T06:44:38;20.23;;;9.30;;
71368;SDS011;59175;53.214;5.728;2023-05-07T06:47:03;20.50;;;8.33;;
71368;SDS011;59175;53.214;5.728;2023-05-07T06:49:28;22.87;;;8.77;;
71368;SDS011;59175;53.214;5.728;2023-05-07T06:51:53;20.83;;;8.63;;
71368;SDS011;59175;53.214;5.728;2023-05-07T06:54:19;25.33;;;11.53;;
71368;SDS011;59175;53.214;5.728;2023-05-07T06:56:45;18.40;;;9.20;;
71368;SDS011;59175;53.214;5.728;2023-05-07T06:59:10;18.83;;;8.93;;
71368;SDS011;59175;53.214;5.728;2023-05-07T07:01:35;20.27;;;8.70;;
71368;SDS011;59175;53.214;5.728;2023-05-07T07:04:00;17.40;;;8.93;;
71368;SDS011;59175;53.214;5.728;2023-05-07T07:06:26;16.83;;;7.77;;
71368;SDS011;59175;53.214;5.728;2023-05-07T07:08:51;17.55;;;7.93;;
71368;SDS011;59175;53.214;5.728;2023-05-07T07:11:17;22.97;;;10.07;;
71368;SDS011;59175;53.214;5.728;2023-05-07T07:13:42;17.60;;;7.70;;
71368;SDS011;59175;53.214;5.728;2023-05-07T07:16:08;22.33;;;9.00;;
71368;SDS011;59175;53.214;5.728;2023-05-07T07:18:33;18.73;;;7.97;;
71368;SDS011;59175;53.214;5.728;2023-05-07T07:20:58;15.87;;;7.83;;
71368;SDS011;59175;53.214;5.728;2023-05-07T07:23:24;23.57;;;9.57;;
71368;SDS011;59175;53.214;5.728;2023-05-07T07:25:49;20.60;;;8.93;;
71368;SDS011;59175;53.214;5.728;2023-05-07T07:28:15;23.53;;;9.60;;
71368;SDS011;59175;53.214;5.728;2023-05-07T07:30:40;18.70;;;8.90;;
71368;SDS011;59175;53.214;5.728;2023-05-07T07:33:05;20.77;;;8.87;;
71368;SDS011;59175;53.214;5.728;2023-05-07T07:35:31;18.87;;;7.97;;
71368;SDS011;59175;53.214;5.728;2023-05-07T07:37:56;16.73;;;7.82;;
71368;SDS011;59175;53.214;5.728;2023-05-07T07:40:22;20.87;;;9.30;;
71368;SDS011;59175;53.214;5.728;2023-05-07T07:42:47;20.13;;;9.63;;
71368;SDS011;59175;53.214;5.728;2023-05-07T07:45:12;20.57;;;8.17;;
71368;SDS011;59175;53.214;5.728;2023-05-07T07:47:38;17.60;;;7.70;;
71368;SDS011;59175;53.214;5.728;2023-05-07T07:50:03;20.27;;;9.23;;
71368;SDS011;59175;53.214;5.728;2023-05-07T07:52:28;18.87;;;7.40;;
71368;SDS011;59175;53.214;5.728;2023-05-07T07:54:53;21.60;;;9.17;;
71368;SDS011;59175;53.214;5.728;2023-05-07T07:57:19;17.83;;;8.10;;
71368;SDS011;59175;53.214;5.728;2023-05-07T07:59:44;16.30;;;7.23;;
71368;SDS011;59175;53.214;5.728;2023-05-07T08:02:09;19.07;;;7.70;;
71368;SDS011;59175;53.214;5.728;2023-05-07T08:04:34;19.07;;;8.13;;
71368;SDS011;59175;53.214;5.728;2023-05-07T08:07:00;19.13;;;7.88;;
71368;SDS011;59175;53.214;5.728;2023-05-07T08:09:25;20.80;;;7.40;;
71368;SDS011;59175;53.214;5.728;2023-05-07T08:11:50;18.70;;;8.30;;
71368;SDS011;59175;53.214;5.728;2023-05-07T08:14:16;20.23;;;8.80;;
71368;SDS011;59175;53.214;5.728;2023-05-07T08:16:42;18.70;;;7.43;;
71368;SDS011;59175;53.214;5.728;2023-05-07T08:19:07;18.35;;;7.80;;
71368;SDS011;59175;53.214;5.728;2023-05-07T08:21:32;19.23;;;7.25;;
71368;SDS011;59175;53.214;5.728;2023-05-07T08:23:57;20.20;;;7.57;;
71368;SDS011;59175;53.214;5.728;2023-05-07T08:26:23;20.02;;;7.60;;
71368;SDS011;59175;53.214;5.728;2023-05-07T08:28:48;18.83;;;7.33;;
71368;SDS011;59175;53.214;5.728;2023-05-07T08:31:13;18.37;;;8.70;;
71368;SDS011;59175;53.214;5.728;2023-05-07T08:33:38;18.70;;;6.47;;
71368;SDS011;59175;53.214;5.728;2023-05-07T08:36:04;17.42;;;7.57;;
71368;SDS011;59175;53.214;5.728;2023-05-07T08:38:29;19.83;;;8.50;;
71368;SDS011;59175;53.214;5.728;2023-05-07T08:40:54;13.03;;;6.87;;
71368;SDS011;59175;53.214;5.728;2023-05-07T08:43:20;12.43;;;6.20;;
71368;SDS011;59175;53.214;5.728;2023-05-07T08:45:46;16.85;;;7.88;;
71368;SDS011;59175;53.214;5.728;2023-05-07T08:48:14;14.45;;;8.65;;
71368;SDS011;59175;53.214;5.728;2023-05-07T08:50:40;17.70;;;7.43;;
71368;SDS011;59175;53.214;5.728;2023-05-07T08:53:05;19.90;;;8.97;;
71368;SDS011;59175;53.214;5.728;2023-05-07T08:55:30;20.65;;;8.35;;
71368;SDS011;59175;53.214;5.728;2023-05-07T08:57:56;17.75;;;8.35;;
71368;SDS011;59175;53.214;5.728;2023-05-07T09:00:21;20.27;;;8.70;;
71368;SDS011;59175;53.214;5.728;2023-05-07T09:02:46;19.07;;;7.97;;
71368;SDS011;59175;53.214;5.728;2023-05-07T09:05:12;21.00;;;8.50;;
71368;SDS011;59175;53.214;5.728;2023-05-07T09:07:37;17.60;;;6.77;;
71368;SDS011;59175;53.214;5.728;2023-05-07T09:10:02;17.67;;;7.53;;
71368;SDS011;59175;53.214;5.728;2023-05-07T09:12:28;18.33;;;8.38;;
71368;SDS011;59175;53.214;5.728;2023-05-07T09:14:53;14.17;;;7.43;;
71368;SDS011;59175;53.214;5.728;2023-05-07T09:17:18;16.07;;;6.87;;
71368;SDS011;59175;53.214;5.728;2023-05-07T09:19:44;17.70;;;8.70;;
71368;SDS011;59175;53.214;5.728;2023-05-07T09:22:10;21.97;;;8.87;;
71368;SDS011;59175;53.214;5.728;2023-05-07T09:24:36;20.17;;;9.00;;
71368;SDS011;59175;53.214;5.728;2023-05-07T09:27:03;18.20;;;8.80;;
71368;SDS011;59175;53.214;5.728;2023-05-07T09:29:28;20.25;;;8.38;;
71368;SDS011;59175;53.214;5.728;2023-05-07T09:31:55;17.67;;;8.23;;
71368;SDS011;59175;53.214;5.728;2023-05-07T09:34:20;15.63;;;7.83;;
71368;SDS011;59175;53.214;5.728;2023-05-07T09:36:45;16.27;;;7.77;;
71368;SDS011;59175;53.214;5.728;2023-05-07T09:39:11;17.15;;;7.88;;
71368;SDS011;59175;53.214;5.728;2023-05-07T09:41:44;16.73;;;7.77;;
71368;SDS011;59175;53.214;5.728;2023-05-07T09:44:10;18.55;;;7.72;;
71368;SDS011;59175;53.214;5.728;2023-05-07T09:46:36;18.13;;;8.15;;
71368;SDS011;59175;53.214;5.728;2023-05-07T09:49:02;16.37;;;7.47;;
71368;SDS011;59175;53.214;5.728;2023-05-07T09:53:52;15.43;;;6.70;;
71368;SDS011;59175;53.214;5.728;2023-05-07T09:56:18;18.63;;;8.10;;
71368;SDS011;59175;53.214;5.728;2023-05-07T09:58:43;15.63;;;7.30;;
71368;SDS011;59175;53.214;5.728;2023-05-07T10:01:10;23.05;;;9.40;;
71368;SDS011;59175;53.214;5.728;2023-05-07T10:03:35;17.87;;;8.30;;
71368;SDS011;59175;53.214;5.728;2023-05-07T10:06:01;16.90;;;8.85;;
71368;SDS011;59175;53.214;5.728;2023-05-07T10:08:26;16.67;;;7.47;;
71368;SDS011;59175;53.214;5.728;2023-05-07T10:10:52;16.73;;;7.30;;
71368;SDS011;59175;53.214;5.728;2023-05-07T10:13:18;19.60;;;8.50;;
71368;SDS011;59175;53.214;5.728;2023-05-07T10:15:44;16.83;;;7.57;;
71368;SDS011;59175;53.214;5.728;2023-05-07T10:18:09;21.17;;;9.15;;
71368;SDS011;59175;53.214;5.728;2023-05-07T10:20:36;19.30;;;7.95;;
71368;SDS011;59175;53.214;5.728;2023-05-07T10:23:02;19.50;;;10.37;;
71368;SDS011;59175;53.214;5.728;2023-05-07T10:25:29;21.05;;;8.77;;
71368;SDS011;59175;53.214;5.728;2023-05-07T10:27:55;16.02;;;7.93;;
71368;SDS011;59175;53.214;5.728;2023-05-07T10:32:48;16.67;;;8.07;;
71368;SDS011;59175;53.214;5.728;2023-05-07T10:35:23;20.10;;;7.75;;
71368;SDS011;59175;53.214;5.728;2023-05-07T10:37:49;16.17;;;8.70;;
71368;SDS011;59175;53.214;5.728;2023-05-07T10:40:15;15.88;;;7.95;;
71368;SDS011;59175;53.214;5.728;2023-05-07T10:42:59;19.23;;;9.20;;
71368;SDS011;59175;53.214;5.728;2023-05-07T10:45:25;18.83;;;8.23;;
71368;SDS011;59175;53.214;5.728;2023-05-07T10:48:09;21.13;;;8.63;;
71368;SDS011;59175;53.214;5.728;2023-05-07T10:50:35;17.38;;;8.35;;
71368;SDS011;59175;53.214;5.728;2023-05-07T10:55:41;20.60;;;8.13;;
71368;SDS011;59175;53.214;5.728;2023-05-07T11:01:04;20.95;;;7.85;;
71368;SDS011;59175;53.214;5.728;2023-05-07T11:03:29;16.63;;;8.03;;
71368;SDS011;59175;53.214;5.728;2023-05-07T11:06:14;18.52;;;8.30;;
71368;SDS011;59175;53.214;5.728;2023-05-07T11:11:16;16.95;;;9.52;;
71368;SDS011;59175;53.214;5.728;2023-05-07T11:13:48;17.87;;;7.53;;
71368;SDS011;59175;53.214;5.728;2023-05-07T11:18:46;21.67;;;8.18;;
71368;SDS011;59175;53.214;5.728;2023-05-07T11:21:11;17.52;;;8.25;;
71368;SDS011;59175;53.214;5.728;2023-05-07T11:26:04;19.83;;;8.38;;
71368;SDS011;59175;53.214;5.728;2023-05-07T11:28:29;18.73;;;8.82;;
71368;SDS011;59175;53.214;5.728;2023-05-07T11:30:55;16.30;;;7.35;;
71368;SDS011;59175;53.214;5.728;2023-05-07T11:33:21;18.27;;;7.95;;
71368;SDS011;59175;53.214;5.728;2023-05-07T11:35:47;22.33;;;8.97;;
71368;SDS011;59175;53.214;5.728;2023-05-07T11:38:12;20.57;;;8.23;;
71368;SDS011;59175;53.214;5.728;2023-05-07T11:40:53;21.73;;;9.57;;
71368;SDS011;59175;53.214;5.728;2023-05-07T11:43:19;18.42;;;8.40;;
71368;SDS011;59175;53.214;5.728;2023-05-07T11:45:45;18.10;;;8.05;;
71368;SDS011;59175;53.214;5.728;2023-05-07T11:48:10;18.65;;;7.80;;
71368;SDS011;59175;53.214;5.728;2023-05-07T11:50:36;19.35;;;8.90;;
71368;SDS011;59175;53.214;5.728;2023-05-07T11:53:14;17.88;;;8.27;;
71368;SDS011;59175;53.214;5.728;2023-05-07T11:55:39;15.27;;;6.67;;
71368;SDS011;59175;53.214;5.728;2023-05-07T11:58:05;21.63;;;8.77;;
71368;SDS011;59175;53.214;5.728;2023-05-07T12:00:30;18.60;;;8.90;;
71368;SDS011;59175;53.214;5.728;2023-05-07T12:02:55;17.25;;;7.90;;
71368;SDS011;59175;53.214;5.728;2023-05-07T12:05:20;18.67;;;8.48;;
71368;SDS011;59175;53.214;5.728;2023-05-07T12:07:45;20.70;;;8.10;;
71368;SDS011;59175;53.214;5.728;2023-05-07T12:10:11;17.75;;;8.65;;
71368;SDS011;59175;53.214;5.728;2023-05-07T12:12:39;20.53;;;7.87;;
71368;SDS011;59175;53.214;5.728;2023-05-07T12:15:06;17.85;;;8.98;;
71368;SDS011;59175;53.214;5.728;2023-05-07T12:17:32;18.13;;;8.13;;
71368;SDS011;59175;53.214;5.728;2023-05-07T12:19:57;18.70;;;8.87;;
71368;SDS011;59175;53.214;5.728;2023-05-07T12:22:22;18.87;;;8.83;;
71368;SDS011;59175;53.214;5.728;2023-05-07T12:24:57;16.07;;;8.10;;
71368;SDS011;59175;53.214;5.728;2023-05-07T12:27:23;17.48;;;8.20;;
71368;SDS011;59175;53.214;5.728;2023-05-07T12:29:48;15.67;;;7.63;;
71368;SDS011;59175;53.214;5.728;2023-05-07T12:32:14;19.08;;;7.72;;
71368;SDS011;59175;53.214;5.728;2023-05-07T12:34:40;14.32;;;6.97;;
71368;SDS011;59175;53.214;5.728;2023-05-07T12:37:05;17.47;;;8.17;;
71368;SDS011;59175;53.214;5.728;2023-05-07T12:39:31;19.23;;;9.00;;
71368;SDS011;59175;53.214;5.728;2023-05-07T12:41:58;15.38;;;7.60;;
71368;SDS011;59175;53.214;5.728;2023-05-07T12:44:24;17.47;;;7.27;;
71368;SDS011;59175;53.214;5.728;2023-05-07T12:46:49;15.68;;;6.53;;
71368;SDS011;59175;53.214;5.728;2023-05-07T12:49:14;15.67;;;7.27;;
71368;SDS011;59175;53.214;5.728;2023-05-07T12:51:39;17.40;;;8.00;;
71368;SDS011;59175;53.214;5.728;2023-05-07T12:54:05;17.70;;;7.87;;
71368;SDS011;59175;53.214;5.728;2023-05-07T12:56:31;19.10;;;8.13;;
71368;SDS011;59175;53.214;5.728;2023-05-07T12:58:57;16.60;;;8.15;;
71368;SDS011;59175;53.214;5.728;2023-05-07T13:01:28;16.23;;;7.40;;
71368;SDS011;59175;53.214;5.728;2023-05-07T13:03:53;16.20;;;7.60;;
71368;SDS011;59175;53.214;5.728;2023-05-07T13:06:18;14.63;;;6.53;;
71368;SDS011;59175;53.214;5.728;2023-05-07T13:08:44;13.50;;;6.93;;
71368;SDS011;59175;53.214;5.728;2023-05-07T13:11:09;15.37;;;6.67;;
71368;SDS011;59175;53.214;5.728;2023-05-07T13:13:36;14.85;;;7.03;;
71368;SDS011;59175;53.214;5.728;2023-05-07T13:16:01;14.95;;;7.22;;
71368;SDS011;59175;53.214;5.728;2023-05-07T13:18:28;13.75;;;6.10;;
71368;SDS011;59175;53.214;5.728;2023-05-07T13:20:54;13.38;;;6.38;;
71368;SDS011;59175;53.214;5.728;2023-05-07T13:23:19;14.18;;;7.05;;
71368;SDS011;59175;53.214;5.728;2023-05-07T13:25:44;14.17;;;6.37;;
71368;SDS011;59175;53.214;5.728;2023-05-07T13:28:09;13.60;;;6.27;;
71368;SDS011;59175;53.214;5.728;2023-05-07T13:30:35;15.43;;;6.87;;
71368;SDS011;59175;53.214;5.728;2023-05-07T13:33:00;15.67;;;6.73;;
71368;SDS011;59175;53.214;5.728;2023-05-07T13:35:25;12.73;;;6.17;;
71368;SDS011;59175;53.214;5.728;2023-05-07T13:37:51;13.40;;;6.77;;
71368;SDS011;59175;53.214;5.728;2023-05-07T13:40:17;16.70;;;6.22;;
71368;SDS011;59175;53.214;5.728;2023-05-07T13:42:42;15.63;;;6.87;;
71368;SDS011;59175;53.214;5.728;2023-05-07T13:45:07;13.33;;;6.20;;
71368;SDS011;59175;53.214;5.728;2023-05-07T13:47:33;12.77;;;6.50;;
71368;SDS011;59175;53.214;5.728;2023-05-07T13:49:58;14.80;;;6.55;;
71368;SDS011;59175;53.214;5.728;2023-05-07T13:52:23;13.00;;;6.67;;
71368;SDS011;59175;53.214;5.728;2023-05-07T13:54:49;12.20;;;5.47;;
71368;SDS011;59175;53.214;5.728;2023-05-07T13:57:14;15.03;;;7.07;;
71368;SDS011;59175;53.214;5.728;2023-05-07T13:59:40;15.10;;;6.83;;
71368;SDS011;59175;53.214;5.728;2023-05-07T14:02:06;13.83;;;7.47;;
71368;SDS011;59175;53.214;5.728;2023-05-07T14:04:31;14.20;;;7.47;;
71368;SDS011;59175;53.214;5.728;2023-05-07T14:06:56;12.70;;;6.10;;
71368;SDS011;59175;53.214;5.728;2023-05-07T14:09:21;13.80;;;5.97;;
71368;SDS011;59175;53.214;5.728;2023-05-07T14:11:46;15.10;;;6.57;;
71368;SDS011;59175;53.214;5.728;2023-05-07T14:14:16;13.07;;;6.13;;
71368;SDS011;59175;53.214;5.728;2023-05-07T14:16:41;15.57;;;7.30;;
71368;SDS011;59175;53.214;5.728;2023-05-07T14:19:06;13.03;;;7.17;;
71368;SDS011;59175;53.214;5.728;2023-05-07T14:21:31;13.90;;;6.17;;
71368;SDS011;59175;53.214;5.728;2023-05-07T14:23:57;14.23;;;7.00;;
71368;SDS011;59175;53.214;5.728;2023-05-07T14:26:22;13.07;;;6.17;;
71368;SDS011;59175;53.214;5.728;2023-05-07T14:28:48;13.83;;;6.87;;
71368;SDS011;59175;53.214;5.728;2023-05-07T14:31:13;13.87;;;6.10;;
71368;SDS011;59175;53.214;5.728;2023-05-07T14:33:38;12.50;;;6.07;;
71368;SDS011;59175;53.214;5.728;2023-05-07T14:36:03;14.47;;;6.43;;
71368;SDS011;59175;53.214;5.728;2023-05-07T14:38:29;12.35;;;6.18;;
71368;SDS011;59175;53.214;5.728;2023-05-07T14:40:55;14.53;;;7.13;;
71368;SDS011;59175;53.214;5.728;2023-05-07T14:43:21;12.95;;;6.50;;